createdAt,value
2017-03-22T00:00:01.812Z,17.06
2017-03-22T00:00:34.724Z,17.13
2017-03-22T00:01:06.980Z,17.1
2017-03-22T00:01:39.251Z,17.02
2017-03-22T00:02:11.507Z,17.09
2017-03-22T00:02:43.814Z,17.1
2017-03-22T00:03:16.129Z,17.06
2017-03-22T00:03:48.438Z,17.15
2017-03-22T00:04:20.761Z,17.1
2017-03-22T00:04:53.082Z,17.06
2017-03-22T00:05:25.391Z,17.1
2017-03-22T00:05:57.719Z,17.09
2017-03-22T00:06:30.069Z,17.06
2017-03-22T00:07:02.399Z,17.07
2017-03-22T00:07:34.707Z,17.02
2017-03-22T00:08:07.027Z,17.03
2017-03-22T00:08:39.351Z,17.06
2017-03-22T00:09:11.653Z,16.97
2017-03-22T00:09:44.040Z,17.05
2017-03-22T00:10:16.336Z,17.1
2017-03-22T00:10:48.646Z,16.95
2017-03-22T00:11:20.952Z,17.15
2017-03-22T00:11:53.258Z,16.99
2017-03-22T00:12:25.501Z,17
2017-03-22T00:12:58.746Z,17.02
2017-03-22T00:13:31.010Z,17
2017-03-22T00:14:03.283Z,17.03
2017-03-22T00:14:35.542Z,17.05
2017-03-22T00:15:07.797Z,17.09
2017-03-22T00:15:40.031Z,17.06
2017-03-22T00:16:12.378Z,17.09
2017-03-22T00:16:44.649Z,17.1
2017-03-22T00:17:16.953Z,17.13
2017-03-22T00:17:49.240Z,17.03
2017-03-22T00:18:22.269Z,16.99
2017-03-22T00:18:55.176Z,17.06
2017-03-22T00:19:27.441Z,17
2017-03-22T00:19:59.741Z,17
2017-03-22T00:20:32.780Z,17.02
2017-03-22T00:21:05.038Z,16.97
2017-03-22T00:21:37.311Z,16.99
2017-03-22T00:22:09.579Z,17.03
2017-03-22T00:22:41.840Z,17.03
2017-03-22T00:23:14.777Z,17.09
2017-03-22T00:23:47.031Z,17.07
2017-03-22T00:24:19.797Z,16.97
2017-03-22T00:24:52.069Z,16.97
2017-03-22T00:25:24.419Z,17.06
2017-03-22T00:25:56.676Z,16.94
2017-03-22T00:26:28.942Z,17.06
2017-03-22T00:27:01.829Z,17.07
2017-03-22T00:27:34.103Z,16.94
2017-03-22T00:28:06.370Z,16.99
2017-03-22T00:28:38.621Z,17.07
2017-03-22T00:29:11.829Z,17.09
2017-03-22T00:29:44.061Z,16.95
2017-03-22T00:30:16.319Z,17.02
2017-03-22T00:30:48.579Z,17.02
2017-03-22T00:31:20.830Z,16.94
2017-03-22T00:31:53.090Z,17.02
2017-03-22T00:32:25.403Z,17.05
2017-03-22T00:32:57.716Z,16.97
2017-03-22T00:33:30.022Z,17.02
2017-03-22T00:34:02.344Z,17.03
2017-03-22T00:34:34.662Z,17.02
2017-03-22T00:35:06.965Z,16.97
2017-03-22T00:35:39.261Z,16.99
2017-03-22T00:36:11.566Z,17.02
2017-03-22T00:36:43.864Z,17.05
2017-03-22T00:37:16.197Z,17
2017-03-22T00:37:48.509Z,17
2017-03-22T00:38:20.842Z,16.99
2017-03-22T00:38:53.158Z,16.97
2017-03-22T00:39:25.473Z,16.95
2017-03-22T00:39:57.798Z,16.99
2017-03-22T00:40:30.128Z,17.05
2017-03-22T00:41:02.434Z,16.95
2017-03-22T00:41:34.743Z,16.94
2017-03-22T00:42:07.065Z,16.97
2017-03-22T00:42:39.365Z,17
2017-03-22T00:43:11.682Z,17.02
2017-03-22T00:43:44.001Z,17.03
2017-03-22T00:44:16.315Z,17.12
2017-03-22T00:44:48.617Z,17.12
2017-03-22T00:45:20.936Z,17.09
2017-03-22T00:45:53.251Z,17
2017-03-22T00:46:25.553Z,17.07
2017-03-22T00:46:57.851Z,17
2017-03-22T00:47:30.154Z,17.03
2017-03-22T00:48:02.468Z,17
2017-03-22T00:48:34.780Z,17
2017-03-22T00:49:07.105Z,17.06
2017-03-22T00:49:39.436Z,16.99
2017-03-22T00:50:11.747Z,17.07
2017-03-22T00:50:44.034Z,17.05
2017-03-22T00:51:16.326Z,17.02
2017-03-22T00:51:48.631Z,16.99
2017-03-22T00:52:20.932Z,17.1
2017-03-22T00:52:53.254Z,17.03
2017-03-22T00:53:25.585Z,16.99
2017-03-22T00:53:57.915Z,17.05
2017-03-22T00:54:30.234Z,17.05
2017-03-22T00:55:02.543Z,17.05
2017-03-22T00:55:34.861Z,17.06
2017-03-22T00:56:07.180Z,17.06
2017-03-22T00:56:39.534Z,17
2017-03-22T00:57:11.819Z,17.03
2017-03-22T00:57:44.126Z,16.97
2017-03-22T00:58:16.457Z,17.07
2017-03-22T00:58:48.781Z,17.07
2017-03-22T00:59:21.085Z,17.1
2017-03-22T00:59:53.392Z,17.09
2017-03-22T01:00:25.698Z,17.07
2017-03-22T01:00:58.005Z,17.1
2017-03-22T01:01:30.319Z,16.97
2017-03-22T01:02:02.622Z,16.97
2017-03-22T01:02:34.889Z,16.94
2017-03-22T01:03:07.192Z,17.06
2017-03-22T01:03:39.576Z,16.99
2017-03-22T01:04:11.846Z,17.07
2017-03-22T01:04:44.102Z,17.06
2017-03-22T01:05:16.361Z,16.99
2017-03-22T01:05:48.636Z,17.07
2017-03-22T01:06:20.896Z,17.06
2017-03-22T01:06:53.277Z,17.07
2017-03-22T01:07:25.531Z,17.06
2017-03-22T01:07:58.315Z,17.05
2017-03-22T01:08:30.651Z,17.06
2017-03-22T01:09:02.931Z,17.09
2017-03-22T01:09:35.186Z,17.06
2017-03-22T01:10:07.443Z,17.13
2017-03-22T01:10:39.714Z,17.05
2017-03-22T01:11:11.964Z,17.12
2017-03-22T01:11:44.227Z,17
2017-03-22T01:12:17.202Z,17.05
2017-03-22T01:12:49.523Z,17.06
2017-03-22T01:13:21.830Z,17.07
2017-03-22T01:13:54.135Z,17.09
2017-03-22T01:14:26.480Z,17.05
2017-03-22T01:14:58.798Z,17.12
2017-03-22T01:15:31.123Z,17.07
2017-03-22T01:16:03.422Z,17.07
2017-03-22T01:16:35.722Z,17.12
2017-03-22T01:17:08.040Z,17.13
2017-03-22T01:17:40.340Z,17.1
2017-03-22T01:18:12.651Z,17
2017-03-22T01:18:44.977Z,17.1
2017-03-22T01:19:17.293Z,17.1
2017-03-22T01:19:49.628Z,17.12
2017-03-22T01:20:21.988Z,17.05
2017-03-22T01:20:54.294Z,17.03
2017-03-22T01:21:26.605Z,17.07
2017-03-22T01:21:58.920Z,17.09
2017-03-22T01:22:31.180Z,17.1
2017-03-22T01:23:03.429Z,17.03
2017-03-22T01:23:35.685Z,17.07
2017-03-22T01:24:07.945Z,17.06
2017-03-22T01:24:40.689Z,17.05
2017-03-22T01:25:12.938Z,17.06
2017-03-22T01:25:45.198Z,17.17
2017-03-22T01:26:17.467Z,17.05
2017-03-22T01:26:49.738Z,17.02
2017-03-22T01:27:21.991Z,17.12
2017-03-22T01:27:54.247Z,17.09
2017-03-22T01:28:26.508Z,17.06
2017-03-22T01:28:58.763Z,17.12
2017-03-22T01:29:31.021Z,17.09
2017-03-22T01:30:03.286Z,17.06
2017-03-22T01:30:35.552Z,17.03
2017-03-22T01:31:07.807Z,17.1
2017-03-22T01:31:40.056Z,17.06
2017-03-22T01:32:12.320Z,17.02
2017-03-22T01:32:44.642Z,17.15
2017-03-22T01:33:16.962Z,17.02
2017-03-22T01:33:49.274Z,17.12
2017-03-22T01:34:21.621Z,17.07
2017-03-22T01:34:53.938Z,17.07
2017-03-22T01:35:26.241Z,17.05
2017-03-22T01:35:58.566Z,17.03
2017-03-22T01:36:30.879Z,17.05
2017-03-22T01:37:03.182Z,17.02
2017-03-22T01:37:35.473Z,17.1
2017-03-22T01:38:07.787Z,17.02
2017-03-22T01:38:40.103Z,17.07
2017-03-22T01:39:12.431Z,17.06
2017-03-22T01:39:44.749Z,17.13
2017-03-22T01:40:17.048Z,17.03
2017-03-22T01:40:49.345Z,17.07
2017-03-22T01:41:21.648Z,17.12
2017-03-22T01:41:53.944Z,17.12
2017-03-22T01:42:26.258Z,17.07
2017-03-22T01:42:58.551Z,17.07
2017-03-22T01:43:30.852Z,17.06
2017-03-22T01:44:03.164Z,16.99
2017-03-22T01:44:35.528Z,17.07
2017-03-22T01:45:07.842Z,17.15
2017-03-22T01:45:40.157Z,17.07
2017-03-22T01:46:12.455Z,17.05
2017-03-22T01:46:44.745Z,17.09
2017-03-22T01:47:17.048Z,17.03
2017-03-22T01:47:49.390Z,17.03
2017-03-22T01:48:21.702Z,17
2017-03-22T01:48:54.020Z,17.06
2017-03-22T01:49:26.324Z,17.1
2017-03-22T01:49:58.641Z,17.05
2017-03-22T01:50:30.965Z,17.12
2017-03-22T01:51:03.297Z,17.05
2017-03-22T01:51:35.615Z,17.05
2017-03-22T01:52:07.954Z,17.07
2017-03-22T01:52:40.252Z,17.05
2017-03-22T01:53:12.568Z,17.02
2017-03-22T01:53:44.893Z,16.97
2017-03-22T01:54:17.196Z,17.06
2017-03-22T01:54:49.519Z,17.1
2017-03-22T01:55:21.844Z,17.05
2017-03-22T01:55:54.147Z,17.1
2017-03-22T01:56:26.499Z,17.02
2017-03-22T01:56:58.791Z,17.03
2017-03-22T01:57:31.091Z,17.12
2017-03-22T01:58:03.395Z,17.02
2017-03-22T01:58:35.719Z,17.07
2017-03-22T01:59:08.077Z,17.02
2017-03-22T01:59:40.382Z,17.1
2017-03-22T02:00:12.689Z,17.15
2017-03-22T02:00:44.993Z,17.06
2017-03-22T02:01:17.295Z,17.12
2017-03-22T02:01:49.603Z,16.99
2017-03-22T02:02:21.897Z,17
2017-03-22T02:02:54.208Z,16.99
2017-03-22T02:03:26.520Z,17.05
2017-03-22T02:03:58.855Z,17.02
2017-03-22T02:04:31.174Z,17.03
2017-03-22T02:05:03.479Z,17
2017-03-22T02:05:35.789Z,17.03
2017-03-22T02:06:08.108Z,17.09
2017-03-22T02:06:40.404Z,17.03
2017-03-22T02:07:12.715Z,17.03
2017-03-22T02:07:45.016Z,17.1
2017-03-22T02:08:17.329Z,17.05
2017-03-22T02:08:49.642Z,17
2017-03-22T02:09:21.963Z,16.99
2017-03-22T02:09:54.273Z,17.05
2017-03-22T02:10:26.610Z,17.09
2017-03-22T02:10:58.934Z,17.12
2017-03-22T02:11:31.245Z,17.03
2017-03-22T02:12:03.565Z,17.03
2017-03-22T02:12:35.823Z,17.03
2017-03-22T02:13:09.373Z,17.1
2017-03-22T02:13:41.656Z,17.07
2017-03-22T02:14:14.756Z,17.02
2017-03-22T02:14:47.074Z,17.02
2017-03-22T02:15:19.326Z,17.06
2017-03-22T02:15:51.592Z,17.05
2017-03-22T02:16:23.835Z,17.05
2017-03-22T02:16:56.100Z,17.03
2017-03-22T02:17:28.369Z,17.06
2017-03-22T02:18:01.266Z,17.03
2017-03-22T02:18:33.538Z,17.1
2017-03-22T02:19:05.811Z,17.07
2017-03-22T02:19:38.071Z,17.17
2017-03-22T02:20:10.330Z,17.03
2017-03-22T02:20:43.225Z,17.1
2017-03-22T02:21:15.478Z,16.97
2017-03-22T02:21:47.744Z,17.17
2017-03-22T02:22:20.051Z,17.1
2017-03-22T02:22:52.371Z,17.03
2017-03-22T02:23:24.698Z,17.15
2017-03-22T02:23:57.036Z,17.05
2017-03-22T02:24:29.343Z,17.07
2017-03-22T02:25:01.634Z,17.13
2017-03-22T02:25:33.963Z,17.12
2017-03-22T02:26:06.264Z,17.03
2017-03-22T02:26:38.566Z,17.09
2017-03-22T02:27:10.865Z,17.06
2017-03-22T02:27:43.179Z,17.07
2017-03-22T02:28:15.488Z,17.09
2017-03-22T02:28:47.788Z,17.1
2017-03-22T02:29:20.110Z,17.02
2017-03-22T02:29:52.424Z,17.13
2017-03-22T02:30:24.745Z,17.15
2017-03-22T02:30:57.033Z,16.99
2017-03-22T02:31:29.324Z,17.05
2017-03-22T02:32:01.628Z,17.06
2017-03-22T02:32:33.944Z,17.1
2017-03-22T02:33:06.258Z,17.05
2017-03-22T02:33:38.572Z,17.1
2017-03-22T02:34:10.877Z,17.07
2017-03-22T02:34:43.224Z,17.1
2017-03-22T02:35:15.534Z,17.12
2017-03-22T02:35:47.838Z,17.06
2017-03-22T02:36:20.133Z,17.06
2017-03-22T02:36:52.430Z,17.06
2017-03-22T02:37:24.743Z,16.99
2017-03-22T02:37:57.093Z,17.07
2017-03-22T02:38:29.415Z,17.1
2017-03-22T02:39:01.738Z,17.12
2017-03-22T02:39:34.065Z,17.07
2017-03-22T02:40:06.369Z,17.05
2017-03-22T02:40:38.660Z,17.1
2017-03-22T02:41:10.974Z,17.12
2017-03-22T02:41:43.298Z,17.07
2017-03-22T02:42:15.608Z,17.02
2017-03-22T02:42:47.908Z,17.02
2017-03-22T02:43:20.228Z,17.09
2017-03-22T02:43:52.550Z,17.07
2017-03-22T02:44:24.871Z,17.07
2017-03-22T02:44:57.197Z,17.07
2017-03-22T02:45:29.523Z,17.06
2017-03-22T02:46:01.831Z,16.95
2017-03-22T02:46:34.159Z,17.1
2017-03-22T02:47:06.475Z,17.03
2017-03-22T02:47:38.775Z,17.1
2017-03-22T02:48:11.096Z,17.05
2017-03-22T02:48:43.407Z,17.06
2017-03-22T02:49:15.711Z,17.03
2017-03-22T02:49:48.044Z,17.06
2017-03-22T02:50:20.372Z,17.07
2017-03-22T02:50:52.683Z,17.05
2017-03-22T02:51:24.994Z,17.09
2017-03-22T02:51:57.303Z,17.07
2017-03-22T02:52:29.602Z,17.1
2017-03-22T02:53:01.915Z,17.06
2017-03-22T02:53:34.212Z,17.09
2017-03-22T02:54:06.517Z,17.03
2017-03-22T02:54:38.825Z,17.1
2017-03-22T02:55:11.134Z,17
2017-03-22T02:55:43.442Z,17.06
2017-03-22T02:56:15.770Z,17.06
2017-03-22T02:56:48.092Z,17.07
2017-03-22T02:57:20.391Z,17.03
2017-03-22T02:57:52.700Z,17.06
2017-03-22T02:58:25.014Z,17.06
2017-03-22T02:58:57.339Z,17.02
2017-03-22T02:59:29.648Z,17.07
2017-03-22T03:00:01.963Z,17
2017-03-22T03:00:34.262Z,16.99
2017-03-22T03:01:06.559Z,17.1
2017-03-22T03:01:38.857Z,17.09
2017-03-22T03:02:11.166Z,17.1
2017-03-22T03:02:43.486Z,17.06
2017-03-22T03:03:15.804Z,17.02
2017-03-22T03:03:48.170Z,17.03
2017-03-22T03:04:20.502Z,17
2017-03-22T03:04:52.823Z,16.99
2017-03-22T03:05:25.150Z,17.05
2017-03-22T03:05:57.468Z,17
2017-03-22T03:06:29.779Z,16.99
2017-03-22T03:07:02.078Z,17.09
2017-03-22T03:07:34.401Z,17.05
2017-03-22T03:08:06.711Z,17.09
2017-03-22T03:08:39.026Z,17.07
2017-03-22T03:09:11.349Z,17
2017-03-22T03:09:43.650Z,17
2017-03-22T03:10:15.946Z,16.95
2017-03-22T03:10:48.246Z,17.12
2017-03-22T03:11:20.546Z,17.12
2017-03-22T03:11:52.830Z,17.05
2017-03-22T03:12:25.094Z,17.09
2017-03-22T03:12:57.345Z,17.05
2017-03-22T03:13:29.610Z,17.12
2017-03-22T03:14:01.876Z,17.1
2017-03-22T03:14:34.139Z,17.05
2017-03-22T03:15:06.437Z,17.06
2017-03-22T03:15:38.685Z,17.09
2017-03-22T03:16:10.937Z,17.09
2017-03-22T03:16:43.198Z,17.09
2017-03-22T03:17:15.462Z,16.99
2017-03-22T03:17:47.738Z,17.05
2017-03-22T03:18:20.000Z,17.07
2017-03-22T03:18:52.272Z,17.12
2017-03-22T03:19:24.550Z,17.03
2017-03-22T03:19:56.807Z,17.06
2017-03-22T03:20:29.077Z,17.12
2017-03-22T03:21:01.343Z,17.17
2017-03-22T03:21:33.618Z,17.15
2017-03-22T03:22:05.876Z,17.13
2017-03-22T03:22:38.171Z,17.22
2017-03-22T03:23:10.488Z,17.2
2017-03-22T03:23:42.814Z,17.17
2017-03-22T03:24:15.130Z,17.25
2017-03-22T03:24:47.454Z,17.22
2017-03-22T03:25:19.749Z,17.28
2017-03-22T03:25:52.057Z,17.25
2017-03-22T03:26:24.348Z,17.28
2017-03-22T03:26:56.648Z,17.32
2017-03-22T03:27:28.967Z,17.32
2017-03-22T03:28:01.268Z,17.36
2017-03-22T03:28:33.602Z,17.38
2017-03-22T03:29:05.930Z,17.32
2017-03-22T03:29:38.244Z,17.42
2017-03-22T03:30:10.544Z,17.38
2017-03-22T03:30:42.858Z,17.39
2017-03-22T03:31:15.155Z,17.42
2017-03-22T03:31:47.461Z,17.46
2017-03-22T03:32:19.766Z,17.38
2017-03-22T03:32:52.086Z,17.46
2017-03-22T03:33:24.392Z,17.46
2017-03-22T03:33:56.703Z,17.43
2017-03-22T03:34:29.016Z,17.55
2017-03-22T03:35:01.326Z,17.55
2017-03-22T03:35:33.640Z,17.46
2017-03-22T03:36:05.950Z,17.62
2017-03-22T03:36:38.281Z,17.52
2017-03-22T03:37:10.588Z,17.46
2017-03-22T03:37:42.911Z,17.62
2017-03-22T03:38:15.240Z,17.47
2017-03-22T03:38:47.576Z,17.65
2017-03-22T03:39:19.891Z,17.63
2017-03-22T03:39:52.205Z,17.74
2017-03-22T03:40:24.518Z,17.71
2017-03-22T03:40:56.814Z,17.54
2017-03-22T03:41:29.117Z,17.54
2017-03-22T03:42:01.433Z,17.63
2017-03-22T03:42:33.748Z,17.66
2017-03-22T03:43:06.071Z,17.69
2017-03-22T03:43:38.391Z,17.65
2017-03-22T03:44:10.709Z,17.63
2017-03-22T03:44:43.011Z,17.66
2017-03-22T03:45:15.321Z,17.76
2017-03-22T03:45:47.634Z,17.71
2017-03-22T03:46:19.948Z,17.8
2017-03-22T03:46:52.258Z,17.71
2017-03-22T03:47:24.612Z,17.76
2017-03-22T03:47:56.941Z,17.8
2017-03-22T03:48:29.273Z,17.8
2017-03-22T03:49:01.604Z,17.71
2017-03-22T03:49:33.910Z,17.81
2017-03-22T03:50:06.212Z,17.8
2017-03-22T03:50:38.511Z,17.83
2017-03-22T03:51:10.829Z,17.88
2017-03-22T03:51:43.145Z,17.87
2017-03-22T03:52:15.446Z,17.84
2017-03-22T03:52:47.748Z,17.84
2017-03-22T03:53:20.125Z,17.92
2017-03-22T03:53:52.439Z,17.86
2017-03-22T03:54:24.759Z,17.87
2017-03-22T03:54:57.085Z,17.94
2017-03-22T03:55:29.413Z,17.9
2017-03-22T03:56:01.732Z,17.83
2017-03-22T03:56:34.047Z,17.95
2017-03-22T03:57:06.355Z,17.9
2017-03-22T03:57:38.655Z,17.87
2017-03-22T03:58:10.975Z,17.9
2017-03-22T03:58:43.295Z,17.92
2017-03-22T03:59:15.595Z,17.9
2017-03-22T03:59:47.927Z,17.94
2017-03-22T04:00:20.252Z,17.83
2017-03-22T04:00:52.547Z,17.88
2017-03-22T04:01:24.850Z,17.92
2017-03-22T04:01:57.161Z,17.94
2017-03-22T04:02:29.415Z,17.88
2017-03-22T04:03:01.681Z,17.96
2017-03-22T04:03:33.941Z,17.9
2017-03-22T04:04:06.194Z,17.95
2017-03-22T04:04:38.467Z,17.94
2017-03-22T04:05:10.818Z,17.9
2017-03-22T04:05:43.103Z,17.95
2017-03-22T04:06:15.358Z,17.9
2017-03-22T04:06:47.607Z,17.94
2017-03-22T04:07:19.856Z,17.95
2017-03-22T04:07:52.114Z,17.95
2017-03-22T04:08:25.278Z,17.98
2017-03-22T04:08:57.548Z,17.96
2017-03-22T04:09:29.783Z,17.95
2017-03-22T04:10:02.811Z,17.95
2017-03-22T04:10:35.095Z,17.96
2017-03-22T04:11:07.351Z,17.98
2017-03-22T04:11:39.622Z,17.94
2017-03-22T04:12:11.879Z,17.92
2017-03-22T04:12:44.202Z,17.94
2017-03-22T04:13:16.522Z,17.87
2017-03-22T04:13:48.857Z,17.9
2017-03-22T04:14:21.163Z,17.95
2017-03-22T04:14:53.493Z,17.9
2017-03-22T04:15:25.814Z,17.92
2017-03-22T04:15:58.121Z,17.9
2017-03-22T04:16:30.421Z,17.9
2017-03-22T04:17:02.741Z,17.92
2017-03-22T04:17:35.050Z,17.9
2017-03-22T04:18:07.371Z,17.94
2017-03-22T04:18:39.696Z,17.9
2017-03-22T04:19:12.031Z,17.88
2017-03-22T04:19:44.362Z,17.87
2017-03-22T04:20:16.674Z,17.95
2017-03-22T04:20:48.978Z,17.94
2017-03-22T04:21:21.284Z,17.88
2017-03-22T04:21:53.589Z,17.88
2017-03-22T04:22:25.843Z,17.92
2017-03-22T04:22:58.091Z,17.88
2017-03-22T04:23:30.366Z,17.86
2017-03-22T04:24:02.626Z,17.86
2017-03-22T04:24:34.884Z,17.87
2017-03-22T04:25:07.156Z,17.92
2017-03-22T04:25:39.420Z,17.9
2017-03-22T04:26:12.395Z,17.9
2017-03-22T04:26:44.665Z,17.88
2017-03-22T04:27:16.939Z,17.87
2017-03-22T04:27:49.918Z,17.9
2017-03-22T04:28:22.198Z,17.86
2017-03-22T04:28:54.468Z,17.86
2017-03-22T04:29:26.701Z,17.88
2017-03-22T04:29:58.976Z,17.88
2017-03-22T04:30:31.249Z,17.81
2017-03-22T04:31:03.500Z,17.87
2017-03-22T04:31:35.759Z,17.9
2017-03-22T04:32:08.025Z,17.88
2017-03-22T04:32:40.285Z,17.81
2017-03-22T04:33:12.562Z,17.84
2017-03-22T04:33:44.810Z,17.79
2017-03-22T04:34:17.714Z,17.83
2017-03-22T04:34:49.976Z,17.84
2017-03-22T04:35:22.231Z,17.77
2017-03-22T04:35:54.489Z,17.77
2017-03-22T04:36:26.733Z,17.83
2017-03-22T04:36:59.053Z,17.84
2017-03-22T04:37:31.331Z,17.81
2017-03-22T04:38:03.602Z,17.81
2017-03-22T04:38:35.869Z,17.77
2017-03-22T04:39:08.787Z,17.74
2017-03-22T04:39:41.041Z,17.79
2017-03-22T04:40:13.328Z,17.77
2017-03-22T04:40:45.582Z,17.8
2017-03-22T04:41:17.849Z,17.81
2017-03-22T04:41:50.117Z,17.73
2017-03-22T04:42:23.395Z,17.71
2017-03-22T04:42:56.777Z,17.69
2017-03-22T04:43:29.105Z,17.77
2017-03-22T04:44:01.419Z,17.77
2017-03-22T04:44:33.739Z,17.74
2017-03-22T04:45:06.035Z,17.77
2017-03-22T04:45:38.334Z,17.84
2017-03-22T04:46:10.641Z,17.74
2017-03-22T04:46:42.956Z,17.77
2017-03-22T04:47:15.255Z,17.68
2017-03-22T04:47:47.567Z,17.68
2017-03-22T04:48:19.875Z,17.65
2017-03-22T04:48:52.194Z,17.73
2017-03-22T04:49:24.505Z,17.63
2017-03-22T04:49:56.804Z,17.69
2017-03-22T04:50:29.129Z,17.69
2017-03-22T04:51:01.440Z,17.71
2017-03-22T04:51:33.731Z,17.65
2017-03-22T04:52:06.022Z,17.73
2017-03-22T04:52:38.288Z,17.74
2017-03-22T04:53:10.556Z,17.58
2017-03-22T04:53:43.430Z,17.68
2017-03-22T04:54:15.687Z,17.58
2017-03-22T04:54:47.961Z,17.71
2017-03-22T04:55:20.227Z,17.6
2017-03-22T04:55:52.481Z,17.6
2017-03-22T04:56:24.778Z,17.76
2017-03-22T04:56:57.063Z,17.66
2017-03-22T04:57:29.329Z,17.54
2017-03-22T04:58:01.624Z,17.66
2017-03-22T04:58:33.890Z,17.73
2017-03-22T04:59:06.169Z,17.73
2017-03-22T04:59:38.433Z,17.55
2017-03-22T05:00:10.723Z,17.71
2017-03-22T05:00:42.969Z,17.58
2017-03-22T05:01:15.240Z,17.6
2017-03-22T05:01:47.500Z,17.62
2017-03-22T05:02:19.787Z,17.62
2017-03-22T05:02:52.100Z,17.63
2017-03-22T05:03:24.416Z,17.55
2017-03-22T05:03:56.758Z,17.62
2017-03-22T05:04:29.066Z,17.65
2017-03-22T05:05:01.375Z,17.57
2017-03-22T05:05:33.694Z,17.62
2017-03-22T05:06:05.999Z,17.45
2017-03-22T05:06:38.298Z,17.6
2017-03-22T05:07:10.599Z,17.6
2017-03-22T05:07:42.916Z,17.47
2017-03-22T05:08:15.214Z,17.47
2017-03-22T05:08:47.547Z,17.49
2017-03-22T05:09:19.873Z,17.5
2017-03-22T05:09:52.189Z,17.52
2017-03-22T05:10:24.518Z,17.5
2017-03-22T05:10:56.827Z,17.45
2017-03-22T05:11:29.125Z,17.42
2017-03-22T05:12:01.420Z,17.4
2017-03-22T05:12:33.740Z,17.49
2017-03-22T05:13:06.061Z,17.43
2017-03-22T05:13:38.366Z,17.46
2017-03-22T05:14:10.668Z,17.52
2017-03-22T05:14:42.974Z,17.46
2017-03-22T05:15:15.300Z,17.47
2017-03-22T05:15:47.615Z,17.38
2017-03-22T05:16:19.937Z,17.52
2017-03-22T05:16:52.244Z,17.38
2017-03-22T05:17:24.562Z,17.4
2017-03-22T05:17:56.879Z,17.46
2017-03-22T05:18:29.195Z,17.38
2017-03-22T05:19:01.499Z,17.45
2017-03-22T05:19:33.823Z,17.46
2017-03-22T05:20:06.138Z,17.4
2017-03-22T05:20:38.437Z,17.42
2017-03-22T05:21:10.739Z,17.38
2017-03-22T05:21:43.055Z,17.46
2017-03-22T05:22:15.363Z,17.32
2017-03-22T05:22:47.662Z,17.4
2017-03-22T05:23:19.966Z,17.36
2017-03-22T05:23:52.265Z,17.36
2017-03-22T05:24:24.566Z,17.32
2017-03-22T05:24:56.886Z,17.3
2017-03-22T05:25:29.206Z,17.32
2017-03-22T05:26:01.520Z,17.3
2017-03-22T05:26:33.827Z,17.3
2017-03-22T05:27:06.142Z,17.38
2017-03-22T05:27:38.490Z,17.28
2017-03-22T05:28:10.824Z,17.27
2017-03-22T05:28:43.136Z,17.31
2017-03-22T05:29:15.455Z,17.32
2017-03-22T05:29:47.771Z,17.32
2017-03-22T05:30:20.093Z,17.38
2017-03-22T05:30:52.393Z,17.3
2017-03-22T05:31:24.695Z,17.3
2017-03-22T05:31:56.982Z,17.3
2017-03-22T05:32:29.277Z,17.32
2017-03-22T05:33:01.592Z,17.32
2017-03-22T05:33:33.903Z,17.36
2017-03-22T05:34:06.201Z,17.35
2017-03-22T05:34:38.503Z,17.38
2017-03-22T05:35:10.822Z,17.38
2017-03-22T05:35:43.133Z,17.36
2017-03-22T05:36:15.432Z,17.4
2017-03-22T05:36:47.741Z,17.43
2017-03-22T05:37:20.041Z,17.42
2017-03-22T05:37:52.344Z,17.4
2017-03-22T05:38:24.666Z,17.46
2017-03-22T05:38:56.986Z,17.42
2017-03-22T05:39:29.303Z,17.36
2017-03-22T05:40:01.597Z,17.46
2017-03-22T05:40:33.902Z,17.4
2017-03-22T05:41:06.215Z,17.46
2017-03-22T05:41:38.510Z,17.46
2017-03-22T05:42:10.810Z,17.52
2017-03-22T05:42:43.112Z,17.43
2017-03-22T05:43:15.431Z,17.42
2017-03-22T05:43:47.741Z,17.54
2017-03-22T05:44:20.053Z,17.52
2017-03-22T05:44:52.371Z,17.57
2017-03-22T05:45:24.682Z,17.57
2017-03-22T05:45:56.993Z,17.65
2017-03-22T05:46:29.298Z,17.58
2017-03-22T05:47:01.592Z,17.46
2017-03-22T05:47:33.911Z,17.55
2017-03-22T05:48:06.229Z,17.47
2017-03-22T05:48:38.531Z,17.58
2017-03-22T05:49:10.880Z,17.52
2017-03-22T05:49:43.253Z,17.66
2017-03-22T05:50:15.562Z,17.69
2017-03-22T05:50:47.869Z,17.68
2017-03-22T05:51:20.181Z,17.55
2017-03-22T05:51:52.486Z,17.63
2017-03-22T05:52:24.792Z,17.6
2017-03-22T05:52:57.088Z,17.69
2017-03-22T05:53:29.408Z,17.57
2017-03-22T05:54:01.723Z,17.71
2017-03-22T05:54:34.056Z,17.69
2017-03-22T05:55:06.365Z,17.66
2017-03-22T05:55:38.699Z,17.65
2017-03-22T05:56:11.004Z,17.63
2017-03-22T05:56:43.353Z,17.69
2017-03-22T05:57:15.657Z,17.74
2017-03-22T05:57:47.976Z,17.62
2017-03-22T05:58:20.298Z,17.8
2017-03-22T05:58:52.589Z,17.76
2017-03-22T05:59:24.911Z,17.73
2017-03-22T05:59:57.228Z,17.76
2017-03-22T06:00:29.557Z,17.74
2017-03-22T06:01:01.885Z,17.81
2017-03-22T06:01:34.202Z,17.71
2017-03-22T06:02:06.511Z,17.81
2017-03-22T06:02:38.776Z,17.76
2017-03-22T06:03:11.068Z,17.83
2017-03-22T06:03:43.321Z,17.81
2017-03-22T06:04:15.583Z,17.8
2017-03-22T06:04:47.834Z,17.87
2017-03-22T06:05:20.091Z,17.84
2017-03-22T06:05:53.299Z,17.84
2017-03-22T06:06:25.537Z,17.88
2017-03-22T06:06:58.400Z,17.86
2017-03-22T06:07:30.636Z,17.87
2017-03-22T06:08:02.903Z,17.87
2017-03-22T06:08:35.155Z,17.9
2017-03-22T06:09:07.418Z,17.86
2017-03-22T06:09:39.686Z,17.88
2017-03-22T06:10:11.965Z,17.88
2017-03-22T06:10:44.215Z,17.88
2017-03-22T06:11:16.531Z,17.87
2017-03-22T06:11:48.794Z,17.9
2017-03-22T06:12:21.104Z,17.9
2017-03-22T06:12:53.419Z,17.9
2017-03-22T06:13:25.757Z,17.9
2017-03-22T06:13:58.080Z,17.94
2017-03-22T06:14:30.407Z,17.92
2017-03-22T06:15:02.701Z,17.96
2017-03-22T06:15:35.012Z,17.98
2017-03-22T06:16:07.319Z,17.94
2017-03-22T06:16:39.625Z,17.96
2017-03-22T06:17:11.923Z,18.01
2017-03-22T06:17:44.240Z,17.95
2017-03-22T06:18:16.574Z,18.03
2017-03-22T06:18:48.877Z,17.99
2017-03-22T06:19:21.171Z,18.06
2017-03-22T06:19:53.471Z,18.05
2017-03-22T06:20:25.784Z,18.06
2017-03-22T06:20:58.087Z,17.96
2017-03-22T06:21:30.408Z,18.06
2017-03-22T06:22:02.711Z,18.11
2017-03-22T06:22:35.028Z,18.05
2017-03-22T06:23:07.334Z,18.03
2017-03-22T06:23:39.655Z,18.02
2017-03-22T06:24:11.976Z,18.06
2017-03-22T06:24:44.301Z,18.03
2017-03-22T06:25:16.631Z,18.08
2017-03-22T06:25:48.942Z,18.1
2017-03-22T06:26:21.252Z,18.02
2017-03-22T06:26:53.556Z,18.1
2017-03-22T06:27:25.891Z,18.08
2017-03-22T06:27:58.193Z,18.11
2017-03-22T06:28:30.498Z,18.14
2017-03-22T06:29:02.802Z,18.2
2017-03-22T06:29:35.127Z,18.14
2017-03-22T06:30:07.444Z,18.2
2017-03-22T06:30:39.773Z,18.19
2017-03-22T06:31:12.065Z,18.19
2017-03-22T06:31:44.377Z,18.23
2017-03-22T06:32:16.685Z,18.2
2017-03-22T06:32:49.815Z,18.14
2017-03-22T06:33:22.066Z,18.21
2017-03-22T06:33:54.831Z,18.19
2017-03-22T06:34:27.125Z,18.21
2017-03-22T06:34:59.403Z,18.23
2017-03-22T06:35:31.664Z,18.31
2017-03-22T06:36:03.919Z,18.27
2017-03-22T06:36:36.175Z,18.35
2017-03-22T06:37:09.364Z,18.26
2017-03-22T06:37:41.639Z,18.36
2017-03-22T06:38:13.904Z,18.34
2017-03-22T06:38:46.153Z,18.36
2017-03-22T06:39:18.447Z,18.29
2017-03-22T06:39:50.720Z,18.32
2017-03-22T06:40:23.866Z,18.39
2017-03-22T06:40:56.120Z,18.38
2017-03-22T06:41:28.365Z,18.41
2017-03-22T06:42:00.621Z,18.42
2017-03-22T06:42:32.934Z,18.42
2017-03-22T06:43:05.247Z,18.27
2017-03-22T06:43:37.565Z,18.38
2017-03-22T06:44:09.904Z,18.34
2017-03-22T06:44:42.241Z,18.42
2017-03-22T06:45:14.556Z,18.42
2017-03-22T06:45:46.873Z,18.45
2017-03-22T06:46:19.172Z,18.44
2017-03-22T06:46:51.475Z,18.44
2017-03-22T06:47:23.781Z,18.54
2017-03-22T06:47:56.119Z,18.51
2017-03-22T06:48:28.428Z,18.49
2017-03-22T06:49:00.756Z,18.56
2017-03-22T06:49:33.927Z,18.56
2017-03-22T06:50:06.245Z,18.6
2017-03-22T06:50:38.576Z,18.61
2017-03-22T06:51:10.884Z,18.6
2017-03-22T06:51:43.175Z,18.61
2017-03-22T06:52:15.649Z,18.63
2017-03-22T06:52:47.945Z,18.61
2017-03-22T06:53:20.258Z,18.61
2017-03-22T06:53:52.608Z,18.68
2017-03-22T06:54:24.994Z,18.66
2017-03-22T06:54:59.441Z,18.71
2017-03-22T06:55:31.783Z,18.65
2017-03-22T06:56:04.910Z,18.66
2017-03-22T06:56:37.234Z,18.71
2017-03-22T06:57:10.844Z,18.68
2017-03-22T06:57:43.185Z,18.71
2017-03-22T06:58:16.453Z,18.79
2017-03-22T06:58:48.831Z,18.79
2017-03-22T06:59:21.140Z,18.87